sensor_id;sensor_type;location;lat;lon;timestamp;P1;durP1;ratioP1;P2;durP2;ratioP2
36291;SDS011;22327;51.208;6.418;2023-07-31T00:01:49;9.80;;;3.83;;
36291;SDS011;22327;51.208;6.418;2023-07-31T00:04:50;9.60;;;3.80;;
36291;SDS011;22327;51.208;6.418;2023-07-31T00:07:50;6.75;;;2.55;;
36291;SDS011;22327;51.208;6.418;2023-07-31T00:10:51;9.45;;;2.97;;
36291;SDS011;22327;51.208;6.418;2023-07-31T00:13:53;9.00;;;2.95;;
36291;SDS011;22327;51.208;6.418;2023-07-31T00:16:53;9.18;;;3.03;;
36291;SDS011;22327;51.208;6.418;2023-07-31T00:19:54;8.40;;;3.13;;
36291;SDS011;22327;51.208;6.418;2023-07-31T00:22:54;9.70;;;3.58;;
36291;SDS011;22327;51.208;6.418;2023-07-31T00:25:56;6.93;;;2.92;;
36291;SDS011;22327;51.208;6.418;2023-07-31T00:28:56;8.40;;;3.00;;
36291;SDS011;22327;51.208;6.418;2023-07-31T00:31:57;6.38;;;2.83;;
36291;SDS011;22327;51.208;6.418;2023-07-31T00:34:57;5.72;;;3.08;;
36291;SDS011;22327;51.208;6.418;2023-07-31T00:37:58;7.40;;;2.88;;
36291;SDS011;22327;51.208;6.418;2023-07-31T00:40:58;4.97;;;2.60;;
36291;SDS011;22327;51.208;6.418;2023-07-31T00:43:59;8.73;;;3.28;;
36291;SDS011;22327;51.208;6.418;2023-07-31T00:46:59;5.57;;;2.60;;
36291;SDS011;22327;51.208;6.418;2023-07-31T00:50:00;7.70;;;2.45;;
36291;SDS011;22327;51.208;6.418;2023-07-31T00:53:01;6.65;;;2.40;;
36291;SDS011;22327;51.208;6.418;2023-07-31T00:56:02;8.05;;;3.15;;
36291;SDS011;22327;51.208;6.418;2023-07-31T00:59:04;8.90;;;3.00;;
36291;SDS011;22327;51.208;6.418;2023-07-31T01:02:04;7.53;;;2.80;;
36291;SDS011;22327;51.208;6.418;2023-07-31T01:05:05;5.93;;;2.63;;
36291;SDS011;22327;51.208;6.418;2023-07-31T01:08:18;7.30;;;3.15;;
36291;SDS011;22327;51.208;6.418;2023-07-31T01:11:28;8.25;;;2.88;;
36291;SDS011;22327;51.208;6.418;2023-07-31T01:14:30;6.30;;;2.50;;
36291;SDS011;22327;51.208;6.418;2023-07-31T01:17:31;8.15;;;2.83;;
36291;SDS011;22327;51.208;6.418;2023-07-31T01:20:32;6.60;;;2.50;;
36291;SDS011;22327;51.208;6.418;2023-07-31T01:23:42;7.40;;;3.13;;
36291;SDS011;22327;51.208;6.418;2023-07-31T01:27:09;11.30;;;3.35;;
36291;SDS011;22327;51.208;6.418;2023-07-31T01:30:15;6.82;;;2.60;;
36291;SDS011;22327;51.208;6.418;2023-07-31T01:33:19;9.02;;;3.55;;
36291;SDS011;22327;51.208;6.418;2023-07-31T01:36:20;8.52;;;2.88;;
36291;SDS011;22327;51.208;6.418;2023-07-31T01:39:20;6.22;;;2.83;;
36291;SDS011;22327;51.208;6.418;2023-07-31T01:42:21;8.93;;;3.00;;
36291;SDS011;22327;51.208;6.418;2023-07-31T01:45:21;7.28;;;2.75;;
36291;SDS011;22327;51.208;6.418;2023-07-31T01:48:22;10.65;;;3.17;;
36291;SDS011;22327;51.208;6.418;2023-07-31T01:51:22;8.00;;;3.00;;
36291;SDS011;22327;51.208;6.418;2023-07-31T01:54:23;8.25;;;3.15;;
36291;SDS011;22327;51.208;6.418;2023-07-31T01:57:23;7.97;;;3.33;;
36291;SDS011;22327;51.208;6.418;2023-07-31T02:00:24;11.20;;;2.80;;
36291;SDS011;22327;51.208;6.418;2023-07-31T02:03:24;7.15;;;3.00;;
36291;SDS011;22327;51.208;6.418;2023-07-31T02:06:25;8.57;;;2.83;;
36291;SDS011;22327;51.208;6.418;2023-07-31T02:09:25;8.77;;;2.60;;
36291;SDS011;22327;51.208;6.418;2023-07-31T02:12:26;11.52;;;4.03;;
36291;SDS011;22327;51.208;6.418;2023-07-31T02:15:26;6.97;;;2.40;;
36291;SDS011;22327;51.208;6.418;2023-07-31T02:18:27;7.68;;;2.97;;
36291;SDS011;22327;51.208;6.418;2023-07-31T02:21:27;8.25;;;2.78;;
36291;SDS011;22327;51.208;6.418;2023-07-31T02:24:28;9.80;;;3.00;;
36291;SDS011;22327;51.208;6.418;2023-07-31T02:27:29;7.68;;;3.05;;
36291;SDS011;22327;51.208;6.418;2023-07-31T02:30:29;8.43;;;3.22;;
36291;SDS011;22327;51.208;6.418;2023-07-31T02:33:30;6.30;;;3.00;;
36291;SDS011;22327;51.208;6.418;2023-07-31T02:36:30;6.18;;;2.60;;
36291;SDS011;22327;51.208;6.418;2023-07-31T02:39:31;8.88;;;2.70;;
36291;SDS011;22327;51.208;6.418;2023-07-31T02:42:31;11.15;;;2.60;;
36291;SDS011;22327;51.208;6.418;2023-07-31T02:45:32;4.97;;;2.70;;
36291;SDS011;22327;51.208;6.418;2023-07-31T02:48:32;5.15;;;2.80;;
36291;SDS011;22327;51.208;6.418;2023-07-31T02:51:32;7.75;;;2.65;;
36291;SDS011;22327;51.208;6.418;2023-07-31T02:54:33;8.45;;;2.70;;
36291;SDS011;22327;51.208;6.418;2023-07-31T02:57:33;5.20;;;2.72;;
36291;SDS011;22327;51.208;6.418;2023-07-31T03:00:34;6.50;;;2.85;;
36291;SDS011;22327;51.208;6.418;2023-07-31T03:03:35;5.97;;;3.33;;
36291;SDS011;22327;51.208;6.418;2023-07-31T03:06:35;7.57;;;2.92;;
36291;SDS011;22327;51.208;6.418;2023-07-31T03:09:36;8.02;;;2.90;;
36291;SDS011;22327;51.208;6.418;2023-07-31T03:12:36;9.93;;;3.80;;
36291;SDS011;22327;51.208;6.418;2023-07-31T03:15:37;5.40;;;2.72;;
36291;SDS011;22327;51.208;6.418;2023-07-31T03:18:37;4.78;;;2.58;;
36291;SDS011;22327;51.208;6.418;2023-07-31T03:21:38;8.07;;;2.65;;
36291;SDS011;22327;51.208;6.418;2023-07-31T03:24:38;5.35;;;2.80;;
36291;SDS011;22327;51.208;6.418;2023-07-31T03:27:39;7.22;;;2.97;;
36291;SDS011;22327;51.208;6.418;2023-07-31T03:30:39;8.20;;;3.05;;
36291;SDS011;22327;51.208;6.418;2023-07-31T03:33:40;6.72;;;3.00;;
36291;SDS011;22327;51.208;6.418;2023-07-31T03:36:40;4.63;;;2.63;;
36291;SDS011;22327;51.208;6.418;2023-07-31T03:39:41;8.75;;;2.83;;
36291;SDS011;22327;51.208;6.418;2023-07-31T03:42:41;8.10;;;3.33;;
36291;SDS011;22327;51.208;6.418;2023-07-31T03:45:42;6.82;;;2.58;;
36291;SDS011;22327;51.208;6.418;2023-07-31T03:48:43;4.93;;;2.35;;
36291;SDS011;22327;51.208;6.418;2023-07-31T03:51:43;10.35;;;2.85;;
36291;SDS011;22327;51.208;6.418;2023-07-31T03:54:44;6.85;;;3.20;;
36291;SDS011;22327;51.208;6.418;2023-07-31T03:57:45;6.55;;;3.05;;
36291;SDS011;22327;51.208;6.418;2023-07-31T04:00:45;6.05;;;2.55;;
36291;SDS011;22327;51.208;6.418;2023-07-31T04:03:47;5.82;;;3.03;;
36291;SDS011;22327;51.208;6.418;2023-07-31T04:06:47;7.30;;;3.08;;
36291;SDS011;22327;51.208;6.418;2023-07-31T04:09:48;6.72;;;2.85;;
36291;SDS011;22327;51.208;6.418;2023-07-31T04:12:48;6.25;;;2.75;;
36291;SDS011;22327;51.208;6.418;2023-07-31T04:15:49;6.45;;;2.78;;
36291;SDS011;22327;51.208;6.418;2023-07-31T04:18:50;7.55;;;3.03;;
36291;SDS011;22327;51.208;6.418;2023-07-31T04:21:51;7.30;;;3.10;;
36291;SDS011;22327;51.208;6.418;2023-07-31T04:24:51;6.07;;;2.95;;
36291;SDS011;22327;51.208;6.418;2023-07-31T04:27:52;7.43;;;2.97;;
36291;SDS011;22327;51.208;6.418;2023-07-31T04:30:52;7.43;;;3.50;;
36291;SDS011;22327;51.208;6.418;2023-07-31T04:33:53;6.20;;;2.88;;
36291;SDS011;22327;51.208;6.418;2023-07-31T04:36:54;6.20;;;3.22;;
36291;SDS011;22327;51.208;6.418;2023-07-31T04:39:54;6.57;;;3.20;;
36291;SDS011;22327;51.208;6.418;2023-07-31T04:42:55;7.53;;;3.15;;
36291;SDS011;22327;51.208;6.418;2023-07-31T04:45:55;6.10;;;3.22;;
36291;SDS011;22327;51.208;6.418;2023-07-31T04:48:56;6.10;;;3.53;;
36291;SDS011;22327;51.208;6.418;2023-07-31T04:51:56;4.70;;;3.20;;
36291;SDS011;22327;51.208;6.418;2023-07-31T04:54:57;6.28;;;2.83;;
36291;SDS011;22327;51.208;6.418;2023-07-31T04:57:58;9.98;;;3.05;;
36291;SDS011;22327;51.208;6.418;2023-07-31T05:00:59;4.30;;;2.88;;
36291;SDS011;22327;51.208;6.418;2023-07-31T05:04:00;4.50;;;2.33;;
36291;SDS011;22327;51.208;6.418;2023-07-31T05:07:00;5.55;;;2.53;;
36291;SDS011;22327;51.208;6.418;2023-07-31T05:10:01;5.72;;;2.85;;
36291;SDS011;22327;51.208;6.418;2023-07-31T05:13:01;5.60;;;2.78;;
36291;SDS011;22327;51.208;6.418;2023-07-31T05:16:02;5.85;;;2.83;;
36291;SDS011;22327;51.208;6.418;2023-07-31T05:19:02;4.97;;;2.80;;
36291;SDS011;22327;51.208;6.418;2023-07-31T05:22:03;3.47;;;2.22;;
36291;SDS011;22327;51.208;6.418;2023-07-31T05:25:04;4.45;;;2.95;;
36291;SDS011;22327;51.208;6.418;2023-07-31T05:28:04;4.15;;;2.53;;
36291;SDS011;22327;51.208;6.418;2023-07-31T05:31:05;7.22;;;2.75;;
36291;SDS011;22327;51.208;6.418;2023-07-31T05:34:06;6.40;;;2.95;;
36291;SDS011;22327;51.208;6.418;2023-07-31T05:37:07;5.30;;;2.90;;
36291;SDS011;22327;51.208;6.418;2023-07-31T05:40:07;5.03;;;2.80;;
36291;SDS011;22327;51.208;6.418;2023-07-31T05:43:08;3.78;;;2.22;;
36291;SDS011;22327;51.208;6.418;2023-07-31T05:46:09;5.38;;;2.53;;
36291;SDS011;22327;51.208;6.418;2023-07-31T05:49:11;5.45;;;2.65;;
36291;SDS011;22327;51.208;6.418;2023-07-31T05:52:12;5.63;;;2.83;;
36291;SDS011;22327;51.208;6.418;2023-07-31T05:55:12;6.22;;;2.92;;
36291;SDS011;22327;51.208;6.418;2023-07-31T05:58:13;5.75;;;3.22;;
36291;SDS011;22327;51.208;6.418;2023-07-31T06:01:14;6.13;;;3.25;;
36291;SDS011;22327;51.208;6.418;2023-07-31T06:04:15;5.22;;;2.95;;
36291;SDS011;22327;51.208;6.418;2023-07-31T06:07:16;10.20;;;3.95;;
36291;SDS011;22327;51.208;6.418;2023-07-31T06:10:16;9.00;;;3.50;;
36291;SDS011;22327;51.208;6.418;2023-07-31T06:13:17;5.80;;;3.20;;
36291;SDS011;22327;51.208;6.418;2023-07-31T06:16:17;7.82;;;3.45;;
36291;SDS011;22327;51.208;6.418;2023-07-31T06:19:18;4.60;;;2.75;;
36291;SDS011;22327;51.208;6.418;2023-07-31T06:22:20;5.43;;;3.00;;
36291;SDS011;22327;51.208;6.418;2023-07-31T06:25:20;4.80;;;3.08;;
36291;SDS011;22327;51.208;6.418;2023-07-31T06:28:21;5.90;;;3.75;;
36291;SDS011;22327;51.208;6.418;2023-07-31T06:31:26;4.65;;;2.53;;
36291;SDS011;22327;51.208;6.418;2023-07-31T06:34:27;5.75;;;2.70;;
36291;SDS011;22327;51.208;6.418;2023-07-31T06:37:28;5.75;;;3.22;;
36291;SDS011;22327;51.208;6.418;2023-07-31T06:40:28;5.15;;;3.00;;
36291;SDS011;22327;51.208;6.418;2023-07-31T06:43:29;5.15;;;2.50;;
36291;SDS011;22327;51.208;6.418;2023-07-31T06:46:30;4.55;;;2.50;;
36291;SDS011;22327;51.208;6.418;2023-07-31T06:49:30;7.50;;;3.15;;
36291;SDS011;22327;51.208;6.418;2023-07-31T06:52:31;3.90;;;2.40;;
36291;SDS011;22327;51.208;6.418;2023-07-31T06:55:31;6.05;;;2.85;;
36291;SDS011;22327;51.208;6.418;2023-07-31T06:58:32;6.63;;;3.40;;
36291;SDS011;22327;51.208;6.418;2023-07-31T07:01:33;6.38;;;2.90;;
36291;SDS011;22327;51.208;6.418;2023-07-31T07:04:33;7.18;;;3.30;;
36291;SDS011;22327;51.208;6.418;2023-07-31T07:07:34;5.88;;;3.20;;
36291;SDS011;22327;51.208;6.418;2023-07-31T07:10:35;4.25;;;3.05;;
36291;SDS011;22327;51.208;6.418;2023-07-31T07:13:36;7.13;;;3.25;;
36291;SDS011;22327;51.208;6.418;2023-07-31T07:16:37;8.50;;;3.85;;
36291;SDS011;22327;51.208;6.418;2023-07-31T07:19:40;6.78;;;3.20;;
36291;SDS011;22327;51.208;6.418;2023-07-31T07:22:40;5.82;;;3.33;;
36291;SDS011;22327;51.208;6.418;2023-07-31T07:25:43;5.55;;;3.00;;
36291;SDS011;22327;51.208;6.418;2023-07-31T07:28:45;4.68;;;2.90;;
36291;SDS011;22327;51.208;6.418;2023-07-31T07:31:45;4.35;;;2.47;;
36291;SDS011;22327;51.208;6.418;2023-07-31T07:34:46;5.05;;;2.28;;
36291;SDS011;22327;51.208;6.418;2023-07-31T07:37:50;3.53;;;2.42;;
36291;SDS011;22327;51.208;6.418;2023-07-31T07:40:51;4.00;;;2.60;;
36291;SDS011;22327;51.208;6.418;2023-07-31T07:43:53;4.90;;;2.80;;
36291;SDS011;22327;51.208;6.418;2023-07-31T07:46:53;5.93;;;2.75;;
36291;SDS011;22327;51.208;6.418;2023-07-31T07:49:54;5.45;;;2.70;;
36291;SDS011;22327;51.208;6.418;2023-07-31T07:52:54;4.80;;;2.60;;
36291;SDS011;22327;51.208;6.418;2023-07-31T07:55:55;2.83;;;2.00;;
36291;SDS011;22327;51.208;6.418;2023-07-31T07:58:55;5.80;;;2.47;;
36291;SDS011;22327;51.208;6.418;2023-07-31T08:01:56;4.15;;;2.55;;
36291;SDS011;22327;51.208;6.418;2023-07-31T08:04:57;5.13;;;2.47;;
36291;SDS011;22327;51.208;6.418;2023-07-31T08:07:58;4.35;;;2.30;;
36291;SDS011;22327;51.208;6.418;2023-07-31T08:10:58;2.92;;;2.10;;
36291;SDS011;22327;51.208;6.418;2023-07-31T08:13:59;8.07;;;2.70;;
36291;SDS011;22327;51.208;6.418;2023-07-31T08:17:00;4.18;;;2.20;;
36291;SDS011;22327;51.208;6.418;2023-07-31T08:20:00;5.32;;;2.25;;
36291;SDS011;22327;51.208;6.418;2023-07-31T08:23:01;7.68;;;5.88;;
36291;SDS011;22327;51.208;6.418;2023-07-31T08:26:01;35.15;;;24.75;;
36291;SDS011;22327;51.208;6.418;2023-07-31T08:29:02;8.93;;;6.75;;
36291;SDS011;22327;51.208;6.418;2023-07-31T08:32:03;8.00;;;5.22;;
36291;SDS011;22327;51.208;6.418;2023-07-31T08:35:04;5.20;;;3.47;;
36291;SDS011;22327;51.208;6.418;2023-07-31T08:38:04;13.40;;;7.40;;
36291;SDS011;22327;51.208;6.418;2023-07-31T08:41:05;9.65;;;6.55;;
36291;SDS011;22327;51.208;6.418;2023-07-31T08:44:07;13.60;;;8.30;;
36291;SDS011;22327;51.208;6.418;2023-07-31T08:47:07;7.57;;;4.05;;
36291;SDS011;22327;51.208;6.418;2023-07-31T08:50:09;8.18;;;5.50;;
36291;SDS011;22327;51.208;6.418;2023-07-31T08:53:11;9.43;;;5.78;;
36291;SDS011;22327;51.208;6.418;2023-07-31T08:56:12;6.55;;;3.97;;
36291;SDS011;22327;51.208;6.418;2023-07-31T08:59:15;10.60;;;6.68;;
36291;SDS011;22327;51.208;6.418;2023-07-31T09:02:17;8.65;;;6.45;;
36291;SDS011;22327;51.208;6.418;2023-07-31T09:05:19;8.77;;;4.03;;
36291;SDS011;22327;51.208;6.418;2023-07-31T09:08:21;9.30;;;5.15;;
36291;SDS011;22327;51.208;6.418;2023-07-31T09:11:22;8.30;;;5.32;;
36291;SDS011;22327;51.208;6.418;2023-07-31T09:14:24;7.30;;;4.68;;
36291;SDS011;22327;51.208;6.418;2023-07-31T09:17:32;6.80;;;3.92;;
36291;SDS011;22327;51.208;6.418;2023-07-31T09:20:34;8.05;;;5.43;;
36291;SDS011;22327;51.208;6.418;2023-07-31T09:23:42;8.73;;;5.25;;
36291;SDS011;22327;51.208;6.418;2023-07-31T09:26:44;7.85;;;4.53;;
36291;SDS011;22327;51.208;6.418;2023-07-31T09:29:44;4.85;;;3.42;;
36291;SDS011;22327;51.208;6.418;2023-07-31T09:33:02;10.55;;;6.35;;
36291;SDS011;22327;51.208;6.418;2023-07-31T09:36:06;6.57;;;3.95;;
36291;SDS011;22327;51.208;6.418;2023-07-31T09:39:08;10.60;;;6.20;;
36291;SDS011;22327;51.208;6.418;2023-07-31T09:42:09;7.38;;;4.90;;
36291;SDS011;22327;51.208;6.418;2023-07-31T09:45:10;4.40;;;2.88;;
36291;SDS011;22327;51.208;6.418;2023-07-31T09:48:12;5.38;;;2.75;;
36291;SDS011;22327;51.208;6.418;2023-07-31T09:51:16;4.65;;;3.08;;
36291;SDS011;22327;51.208;6.418;2023-07-31T09:54:16;4.60;;;3.17;;
36291;SDS011;22327;51.208;6.418;2023-07-31T09:57:17;5.07;;;3.47;;
36291;SDS011;22327;51.208;6.418;2023-07-31T10:00:19;7.32;;;4.28;;
36291;SDS011;22327;51.208;6.418;2023-07-31T10:03:21;9.65;;;4.22;;
36291;SDS011;22327;51.208;6.418;2023-07-31T10:06:22;4.43;;;2.80;;
36291;SDS011;22327;51.208;6.418;2023-07-31T10:09:24;4.95;;;3.65;;
36291;SDS011;22327;51.208;6.418;2023-07-31T10:12:27;5.90;;;3.30;;
36291;SDS011;22327;51.208;6.418;2023-07-31T10:15:29;5.65;;;3.47;;
36291;SDS011;22327;51.208;6.418;2023-07-31T10:18:30;5.05;;;2.85;;
36291;SDS011;22327;51.208;6.418;2023-07-31T10:21:31;4.47;;;2.75;;
36291;SDS011;22327;51.208;6.418;2023-07-31T10:24:35;6.68;;;2.92;;
36291;SDS011;22327;51.208;6.418;2023-07-31T10:27:38;4.45;;;2.30;;
36291;SDS011;22327;51.208;6.418;2023-07-31T10:30:39;4.60;;;2.42;;
36291;SDS011;22327;51.208;6.418;2023-07-31T10:33:40;5.22;;;2.95;;
36291;SDS011;22327;51.208;6.418;2023-07-31T10:36:41;5.63;;;2.60;;
36291;SDS011;22327;51.208;6.418;2023-07-31T10:39:41;3.53;;;2.45;;
36291;SDS011;22327;51.208;6.418;2023-07-31T10:42:52;5.35;;;2.42;;
36291;SDS011;22327;51.208;6.418;2023-07-31T10:45:57;3.95;;;2.50;;
36291;SDS011;22327;51.208;6.418;2023-07-31T10:48:58;4.47;;;2.33;;
36291;SDS011;22327;51.208;6.418;2023-07-31T10:52:03;4.97;;;1.90;;
36291;SDS011;22327;51.208;6.418;2023-07-31T10:55:14;5.00;;;2.42;;
36291;SDS011;22327;51.208;6.418;2023-07-31T10:58:35;5.97;;;2.63;;
36291;SDS011;22327;51.208;6.418;2023-07-31T11:01:49;5.03;;;1.80;;
36291;SDS011;22327;51.208;6.418;2023-07-31T11:05:09;4.40;;;2.45;;
36291;SDS011;22327;51.208;6.418;2023-07-31T11:08:11;3.88;;;2.05;;
36291;SDS011;22327;51.208;6.418;2023-07-31T11:11:20;2.38;;;1.83;;
36291;SDS011;22327;51.208;6.418;2023-07-31T11:14:21;1.98;;;1.50;;
36291;SDS011;22327;51.208;6.418;2023-07-31T11:17:24;3.50;;;2.00;;
36291;SDS011;22327;51.208;6.418;2023-07-31T11:20:26;6.05;;;2.00;;
36291;SDS011;22327;51.208;6.418;2023-07-31T11:23:29;2.38;;;1.60;;
36291;SDS011;22327;51.208;6.418;2023-07-31T11:26:30;2.17;;;1.50;;
36291;SDS011;22327;51.208;6.418;2023-07-31T11:29:30;1.27;;;1.13;;
36291;SDS011;22327;51.208;6.418;2023-07-31T11:32:31;2.88;;;1.70;;
36291;SDS011;22327;51.208;6.418;2023-07-31T11:35:32;12.70;;;9.60;;
36291;SDS011;22327;51.208;6.418;2023-07-31T11:38:34;25.80;;;20.33;;
36291;SDS011;22327;51.208;6.418;2023-07-31T11:41:34;6.50;;;5.65;;
36291;SDS011;22327;51.208;6.418;2023-07-31T11:44:41;4.80;;;3.13;;
36291;SDS011;22327;51.208;6.418;2023-07-31T11:47:47;4.88;;;4.07;;
36291;SDS011;22327;51.208;6.418;2023-07-31T11:50:52;7.13;;;5.35;;
36291;SDS011;22327;51.208;6.418;2023-07-31T11:53:55;4.25;;;3.65;;
36291;SDS011;22327;51.208;6.418;2023-07-31T11:56:58;3.58;;;2.72;;
36291;SDS011;22327;51.208;6.418;2023-07-31T12:03:27;5.15;;;3.58;;
36291;SDS011;22327;51.208;6.418;2023-07-31T12:06:37;4.07;;;3.00;;
36291;SDS011;22327;51.208;6.418;2023-07-31T12:09:37;2.97;;;1.50;;
36291;SDS011;22327;51.208;6.418;2023-07-31T12:12:38;3.55;;;2.35;;
36291;SDS011;22327;51.208;6.418;2023-07-31T12:15:39;3.13;;;2.05;;
36291;SDS011;22327;51.208;6.418;2023-07-31T12:18:41;2.88;;;2.13;;
36291;SDS011;22327;51.208;6.418;2023-07-31T12:21:42;3.00;;;2.35;;
36291;SDS011;22327;51.208;6.418;2023-07-31T12:24:43;1.92;;;1.58;;
36291;SDS011;22327;51.208;6.418;2023-07-31T12:27:44;2.55;;;2.13;;
36291;SDS011;22327;51.208;6.418;2023-07-31T12:30:45;3.17;;;2.13;;
36291;SDS011;22327;51.208;6.418;2023-07-31T12:33:46;3.83;;;1.92;;
36291;SDS011;22327;51.208;6.418;2023-07-31T12:36:49;4.78;;;2.08;;
36291;SDS011;22327;51.208;6.418;2023-07-31T12:39:52;5.45;;;3.35;;
36291;SDS011;22327;51.208;6.418;2023-07-31T12:42:52;8.35;;;4.80;;
36291;SDS011;22327;51.208;6.418;2023-07-31T12:45:56;51.05;;;35.95;;
36291;SDS011;22327;51.208;6.418;2023-07-31T12:48:56;32.08;;;21.13;;
36291;SDS011;22327;51.208;6.418;2023-07-31T12:51:57;43.90;;;31.15;;
36291;SDS011;22327;51.208;6.418;2023-07-31T12:54:57;60.03;;;41.08;;
36291;SDS011;22327;51.208;6.418;2023-07-31T12:57:58;45.30;;;32.20;;
36291;SDS011;22327;51.208;6.418;2023-07-31T13:00:58;3.22;;;2.85;;
36291;SDS011;22327;51.208;6.418;2023-07-31T13:03:59;5.55;;;3.60;;
36291;SDS011;22327;51.208;6.418;2023-07-31T13:06:59;3.70;;;2.72;;
36291;SDS011;22327;51.208;6.418;2023-07-31T13:10:00;9.85;;;4.90;;
36291;SDS011;22327;51.208;6.418;2023-07-31T13:13:00;3.92;;;2.40;;
36291;SDS011;22327;51.208;6.418;2023-07-31T13:16:01;4.57;;;3.35;;
36291;SDS011;22327;51.208;6.418;2023-07-31T13:19:01;6.57;;;3.22;;
36291;SDS011;22327;51.208;6.418;2023-07-31T13:22:02;4.10;;;2.83;;
36291;SDS011;22327;51.208;6.418;2023-07-31T13:25:03;4.18;;;2.95;;
36291;SDS011;22327;51.208;6.418;2023-07-31T13:28:03;3.72;;;2.30;;
36291;SDS011;22327;51.208;6.418;2023-07-31T13:31:04;3.55;;;2.17;;
36291;SDS011;22327;51.208;6.418;2023-07-31T13:34:05;6.53;;;2.60;;
36291;SDS011;22327;51.208;6.418;2023-07-31T13:37:05;3.95;;;2.30;;
36291;SDS011;22327;51.208;6.418;2023-07-31T13:40:06;2.63;;;2.00;;
36291;SDS011;22327;51.208;6.418;2023-07-31T13:43:07;6.65;;;3.13;;
36291;SDS011;22327;51.208;6.418;2023-07-31T13:46:07;4.53;;;2.95;;
36291;SDS011;22327;51.208;6.418;2023-07-31T13:49:10;3.00;;;1.98;;
36291;SDS011;22327;51.208;6.418;2023-07-31T13:52:11;2.67;;;2.10;;
36291;SDS011;22327;51.208;6.418;2023-07-31T13:55:11;3.05;;;2.25;;
36291;SDS011;22327;51.208;6.418;2023-07-31T13:58:12;3.60;;;2.30;;
36291;SDS011;22327;51.208;6.418;2023-07-31T14:01:12;5.10;;;2.90;;
36291;SDS011;22327;51.208;6.418;2023-07-31T14:04:13;3.13;;;2.30;;
36291;SDS011;22327;51.208;6.418;2023-07-31T14:07:13;2.95;;;2.13;;
36291;SDS011;22327;51.208;6.418;2023-07-31T14:10:14;2.67;;;2.20;;
36291;SDS011;22327;51.208;6.418;2023-07-31T14:13:14;2.97;;;2.13;;
36291;SDS011;22327;51.208;6.418;2023-07-31T14:16:15;2.92;;;2.38;;
36291;SDS011;22327;51.208;6.418;2023-07-31T14:19:17;3.00;;;2.10;;
36291;SDS011;22327;51.208;6.418;2023-07-31T14:22:27;3.40;;;2.45;;
36291;SDS011;22327;51.208;6.418;2023-07-31T14:25:31;5.00;;;2.08;;
36291;SDS011;22327;51.208;6.418;2023-07-31T14:28:31;3.05;;;2.50;;
36291;SDS011;22327;51.208;6.418;2023-07-31T14:31:32;3.92;;;1.95;;
36291;SDS011;22327;51.208;6.418;2023-07-31T14:34:32;2.92;;;2.00;;
36291;SDS011;22327;51.208;6.418;2023-07-31T14:37:51;3.20;;;1.95;;
36291;SDS011;22327;51.208;6.418;2023-07-31T14:40:51;3.63;;;2.03;;
36291;SDS011;22327;51.208;6.418;2023-07-31T14:43:52;3.13;;;1.90;;
36291;SDS011;22327;51.208;6.418;2023-07-31T14:46:52;2.63;;;2.03;;
36291;SDS011;22327;51.208;6.418;2023-07-31T14:49:53;3.92;;;2.10;;
36291;SDS011;22327;51.208;6.418;2023-07-31T14:52:53;3.53;;;2.42;;
36291;SDS011;22327;51.208;6.418;2023-07-31T14:55:54;7.47;;;2.60;;
36291;SDS011;22327;51.208;6.418;2023-07-31T14:58:55;4.55;;;2.22;;
36291;SDS011;22327;51.208;6.418;2023-07-31T15:01:56;3.17;;;2.10;;
36291;SDS011;22327;51.208;6.418;2023-07-31T15:04:56;3.42;;;2.30;;
36291;SDS011;22327;51.208;6.418;2023-07-31T15:07:57;4.20;;;2.38;;
36291;SDS011;22327;51.208;6.418;2023-07-31T15:10:57;3.67;;;2.10;;
36291;SDS011;22327;51.208;6.418;2023-07-31T15:13:58;4.28;;;2.67;;
36291;SDS011;22327;51.208;6.418;2023-07-31T15:16:58;4.75;;;2.80;;
36291;SDS011;22327;51.208;6.418;2023-07-31T15:19:59;4.72;;;3.30;;
36291;SDS011;22327;51.208;6.418;2023-07-31T15:23:00;3.30;;;2.40;;
36291;SDS011;22327;51.208;6.418;2023-07-31T15:26:00;4.43;;;2.22;;
36291;SDS011;22327;51.208;6.418;2023-07-31T15:29:02;3.15;;;2.30;;
36291;SDS011;22327;51.208;6.418;2023-07-31T15:32:11;4.35;;;2.50;;
36291;SDS011;22327;51.208;6.418;2023-07-31T15:35:12;4.15;;;2.63;;
36291;SDS011;22327;51.208;6.418;2023-07-31T15:38:12;4.35;;;2.90;;
36291;SDS011;22327;51.208;6.418;2023-07-31T15:41:13;3.45;;;2.53;;
36291;SDS011;22327;51.208;6.418;2023-07-31T15:44:13;4.18;;;2.35;;
36291;SDS011;22327;51.208;6.418;2023-07-31T15:47:14;5.40;;;2.75;;
36291;SDS011;22327;51.208;6.418;2023-07-31T15:50:14;6.50;;;3.67;;
36291;SDS011;22327;51.208;6.418;2023-07-31T15:53:15;4.05;;;2.85;;
36291;SDS011;22327;51.208;6.418;2023-07-31T15:56:15;4.70;;;2.67;;
36291;SDS011;22327;51.208;6.418;2023-07-31T15:59:16;3.88;;;2.30;;
36291;SDS011;22327;51.208;6.418;2023-07-31T16:02:17;3.38;;;2.28;;
36291;SDS011;22327;51.208;6.418;2023-07-31T16:05:17;5.30;;;2.63;;
36291;SDS011;22327;51.208;6.418;2023-07-31T16:08:18;3.97;;;2.42;;
36291;SDS011;22327;51.208;6.418;2023-07-31T16:11:18;3.42;;;2.13;;
36291;SDS011;22327;51.208;6.418;2023-07-31T16:14:19;2.72;;;2.15;;
36291;SDS011;22327;51.208;6.418;2023-07-31T16:17:20;3.17;;;2.70;;
36291;SDS011;22327;51.208;6.418;2023-07-31T16:20:20;2.88;;;2.17;;
36291;SDS011;22327;51.208;6.418;2023-07-31T16:23:21;3.97;;;1.95;;
36291;SDS011;22327;51.208;6.418;2023-07-31T16:26:21;2.80;;;1.63;;
36291;SDS011;22327;51.208;6.418;2023-07-31T16:29:22;4.68;;;3.83;;
36291;SDS011;22327;51.208;6.418;2023-07-31T16:32:22;24.27;;;19.42;;
36291;SDS011;22327;51.208;6.418;2023-07-31T16:35:23;15.20;;;11.70;;
36291;SDS011;22327;51.208;6.418;2023-07-31T16:38:23;25.58;;;18.55;;
36291;SDS011;22327;51.208;6.418;2023-07-31T16:41:24;31.13;;;24.90;;
36291;SDS011;22327;51.208;6.418;2023-07-31T16:44:25;6.00;;;4.30;;
36291;SDS011;22327;51.208;6.418;2023-07-31T16:47:25;3.58;;;2.15;;
36291;SDS011;22327;51.208;6.418;2023-07-31T16:50:26;4.55;;;2.45;;
36291;SDS011;22327;51.208;6.418;2023-07-31T16:53:26;5.13;;;3.67;;
36291;SDS011;22327;51.208;6.418;2023-07-31T16:56:27;7.75;;;5.25;;
36291;SDS011;22327;51.208;6.418;2023-07-31T16:59:27;4.13;;;3.50;;
36291;SDS011;22327;51.208;6.418;2023-07-31T17:02:28;4.50;;;2.80;;
36291;SDS011;22327;51.208;6.418;2023-07-31T17:05:28;4.63;;;3.85;;
36291;SDS011;22327;51.208;6.418;2023-07-31T17:08:29;4.68;;;3.90;;
36291;SDS011;22327;51.208;6.418;2023-07-31T17:11:29;3.53;;;2.75;;
36291;SDS011;22327;51.208;6.418;2023-07-31T17:14:30;5.30;;;3.33;;
36291;SDS011;22327;51.208;6.418;2023-07-31T17:17:30;4.63;;;2.70;;
36291;SDS011;22327;51.208;6.418;2023-07-31T17:20:31;3.33;;;1.95;;
36291;SDS011;22327;51.208;6.418;2023-07-31T17:23:32;3.53;;;2.30;;
36291;SDS011;22327;51.208;6.418;2023-07-31T17:26:32;3.67;;;2.75;;
36291;SDS011;22327;51.208;6.418;2023-07-31T17:29:33;3.55;;;2.38;;
36291;SDS011;22327;51.208;6.418;2023-07-31T17:32:33;3.22;;;2.03;;
36291;SDS011;22327;51.208;6.418;2023-07-31T17:35:34;4.15;;;1.90;;
36291;SDS011;22327;51.208;6.418;2023-07-31T17:38:35;5.47;;;3.25;;
36291;SDS011;22327;51.208;6.418;2023-07-31T17:41:35;4.95;;;2.50;;
36291;SDS011;22327;51.208;6.418;2023-07-31T17:44:36;3.63;;;2.10;;
36291;SDS011;22327;51.208;6.418;2023-07-31T17:47:36;3.20;;;2.00;;
36291;SDS011;22327;51.208;6.418;2023-07-31T17:50:37;3.03;;;2.40;;
36291;SDS011;22327;51.208;6.418;2023-07-31T17:53:37;2.67;;;2.13;;
36291;SDS011;22327;51.208;6.418;2023-07-31T17:56:38;2.95;;;2.17;;
36291;SDS011;22327;51.208;6.418;2023-07-31T17:59:38;3.08;;;1.90;;
36291;SDS011;22327;51.208;6.418;2023-07-31T18:02:39;2.55;;;1.75;;
36291;SDS011;22327;51.208;6.418;2023-07-31T18:05:39;2.58;;;2.10;;
36291;SDS011;22327;51.208;6.418;2023-07-31T18:08:40;3.88;;;2.28;;
36291;SDS011;22327;51.208;6.418;2023-07-31T18:11:40;4.97;;;2.03;;
36291;SDS011;22327;51.208;6.418;2023-07-31T18:14:41;4.53;;;1.90;;